createdAt,value
2022-12-08T00:01:34.158Z,72.11
2022-12-08T00:04:04.163Z,72.21
2022-12-08T00:06:58.025Z,72.31
2022-12-08T00:09:38.596Z,72.28
2022-12-08T00:12:13.012Z,72.24
2022-12-08T00:14:45.945Z,72.12
2022-12-08T00:17:15.992Z,72.13
2022-12-08T00:19:44.327Z,72.23
2022-12-08T00:22:14.671Z,72.26
2022-12-08T00:24:45.093Z,72.25
2022-12-08T00:27:17.512Z,72.17
2022-12-08T00:29:45.297Z,72.00
2022-12-08T00:32:14.580Z,71.95
2022-12-08T00:34:42.324Z,71.80
2022-12-08T00:37:10.231Z,71.76
2022-12-08T00:39:37.795Z,71.92
2022-12-08T00:42:14.089Z,71.94
2022-12-08T00:44:44.357Z,71.77
2022-12-08T00:47:13.549Z,71.57
2022-12-08T00:49:41.822Z,71.57
2022-12-08T00:52:09.667Z,71.61
2022-12-08T00:54:37.339Z,71.56
2022-12-08T00:57:05.302Z,71.50
2022-12-08T00:59:33.035Z,71.54
2022-12-08T01:02:00.770Z,71.34
2022-12-08T01:04:28.405Z,71.29
2022-12-08T01:06:55.982Z,71.34
2022-12-08T01:09:23.375Z,71.40
2022-12-08T01:11:50.965Z,71.47
2022-12-08T01:14:18.308Z,71.28
2022-12-08T01:16:46.090Z,71.17
2022-12-08T01:19:16.625Z,71.05
2022-12-08T01:21:45.343Z,70.95
2022-12-08T01:24:18.123Z,70.89
2022-12-08T01:26:46.517Z,70.82
2022-12-08T01:29:14.648Z,70.81
2022-12-08T01:31:42.404Z,70.79
2022-12-08T01:34:11.622Z,71.00
2022-12-08T01:36:39.799Z,71.05
2022-12-08T01:39:11.961Z,71.11
2022-12-08T01:41:39.464Z,70.91
2022-12-08T01:44:12.323Z,70.85
2022-12-08T01:46:43.059Z,70.69
2022-12-08T01:49:30.666Z,70.60
2022-12-08T01:52:29.204Z,70.51
2022-12-08T01:55:02.328Z,70.45
2022-12-08T01:57:37.938Z,70.63
2022-12-08T02:00:10.303Z,70.78
2022-12-08T02:03:04.306Z,70.86
2022-12-08T02:05:33.703Z,70.57
2022-12-08T02:08:06.222Z,70.47
2022-12-08T02:10:38.050Z,70.73
2022-12-08T02:13:09.223Z,70.95
2022-12-08T02:15:56.591Z,71.03
2022-12-08T02:18:38.475Z,71.18
2022-12-08T02:21:40.321Z,71.25
2022-12-08T02:24:38.001Z,71.28
2022-12-08T02:27:34.654Z,71.46
2022-12-08T02:30:25.832Z,71.57
2022-12-08T02:33:21.674Z,71.62
2022-12-08T02:36:16.205Z,71.62
2022-12-08T02:39:13.347Z,71.53
2022-12-08T02:42:00.889Z,71.55
2022-12-08T02:44:36.385Z,71.67
2022-12-08T02:47:12.346Z,71.73
2022-12-08T02:49:40.436Z,71.85
2022-12-08T02:52:22.591Z,71.67
2022-12-08T02:55:03.595Z,71.76
2022-12-08T02:58:05.605Z,71.69
2022-12-08T03:00:44.495Z,71.66
2022-12-08T03:03:26.347Z,71.62
2022-12-08T03:06:23.336Z,71.75
2022-12-08T03:09:05.734Z,71.68
2022-12-08T03:11:41.760Z,71.89
2022-12-08T03:14:13.222Z,71.97
2022-12-08T03:16:45.327Z,72.14
2022-12-08T03:19:32.924Z,72.24
2022-12-08T03:22:03.194Z,72.32
2022-12-08T03:24:36.085Z,72.29
2022-12-08T03:27:17.800Z,72.41
2022-12-08T03:29:53.331Z,72.26
2022-12-08T03:32:53.521Z,72.41
2022-12-08T03:35:25.980Z,72.60
2022-12-08T03:38:10.596Z,72.79
2022-12-08T03:40:39.281Z,72.73
2022-12-08T03:43:07.139Z,72.72
2022-12-08T03:45:35.117Z,72.75
2022-12-08T03:48:02.944Z,72.93
2022-12-08T03:50:30.715Z,73.07
2022-12-08T03:52:58.162Z,73.09
2022-12-08T03:55:25.511Z,73.04
2022-12-08T03:57:53.132Z,73.00
2022-12-08T04:00:21.445Z,72.97
2022-12-08T04:02:49.006Z,73.05
2022-12-08T04:05:16.892Z,72.97
2022-12-08T04:07:44.518Z,72.94
2022-12-08T04:10:12.385Z,72.77
2022-12-08T04:12:39.989Z,72.65
2022-12-08T04:15:09.684Z,72.57
2022-12-08T04:17:37.513Z,72.56
2022-12-08T04:20:07.207Z,72.70
2022-12-08T04:22:34.921Z,72.75
2022-12-08T04:25:02.712Z,72.90
2022-12-08T04:27:30.598Z,72.95
2022-12-08T04:29:58.349Z,72.89
2022-12-08T04:32:25.857Z,72.93
2022-12-08T04:34:53.728Z,72.94
2022-12-08T04:37:21.370Z,72.89
2022-12-08T04:39:49.232Z,72.98
2022-12-08T04:42:16.866Z,73.07
2022-12-08T04:44:44.374Z,73.18
2022-12-08T04:47:11.901Z,73.12
2022-12-08T04:49:39.904Z,73.13
2022-12-08T04:52:07.132Z,73.08
2022-12-08T04:54:35.073Z,73.09
2022-12-08T04:57:02.563Z,73.12
2022-12-08T04:59:30.302Z,73.20
2022-12-08T05:01:58.132Z,73.34
2022-12-08T05:04:25.882Z,73.15
2022-12-08T05:06:53.419Z,72.94
2022-12-08T05:09:21.816Z,72.88
2022-12-08T05:11:49.474Z,72.99
2022-12-08T05:14:19.061Z,72.99
2022-12-08T05:16:47.551Z,73.06
2022-12-08T05:19:16.306Z,73.02
2022-12-08T05:21:45.295Z,72.95
2022-12-08T05:24:13.208Z,72.98
2022-12-08T05:26:40.721Z,73.06
2022-12-08T05:29:08.156Z,73.10
2022-12-08T05:31:35.896Z,73.16
2022-12-08T05:34:03.845Z,73.21
2022-12-08T05:36:31.445Z,73.24
2022-12-08T05:38:59.376Z,73.30
2022-12-08T05:41:26.939Z,73.46
2022-12-08T05:43:54.511Z,73.55
2022-12-08T05:46:22.303Z,73.54
2022-12-08T05:48:49.989Z,73.66
2022-12-08T05:51:23.261Z,73.78
2022-12-08T05:53:52.274Z,73.79
2022-12-08T05:56:21.410Z,73.71
2022-12-08T05:58:50.165Z,73.59
2022-12-08T06:01:27.744Z,73.54
2022-12-08T06:03:57.508Z,73.55
2022-12-08T06:06:25.409Z,73.64
2022-12-08T06:08:52.950Z,73.69
2022-12-08T06:11:25.762Z,73.74
2022-12-08T06:13:55.391Z,73.90
2022-12-08T06:16:25.537Z,73.97
2022-12-08T06:18:53.484Z,74.06
2022-12-08T06:21:21.523Z,74.17
2022-12-08T06:23:52.320Z,74.21
2022-12-08T06:26:21.034Z,74.16
2022-12-08T06:28:49.913Z,74.14
2022-12-08T06:31:22.476Z,74.18
2022-12-08T06:33:50.665Z,74.20
2022-12-08T06:36:21.543Z,74.21
2022-12-08T06:38:50.034Z,74.21
2022-12-08T06:41:18.011Z,74.22
2022-12-08T06:43:46.031Z,74.23
2022-12-08T06:46:18.833Z,74.22
2022-12-08T06:48:47.622Z,74.33
2022-12-08T06:51:19.140Z,74.29
2022-12-08T06:53:47.090Z,74.20
2022-12-08T06:56:18.161Z,74.09
2022-12-08T06:58:52.065Z,74.03
2022-12-08T07:01:15.807Z,74.00
2022-12-08T07:03:43.265Z,74.13
2022-12-08T07:06:18.251Z,74.14
2022-12-08T07:08:46.024Z,74.09
2022-12-08T07:11:19.619Z,74.05
2022-12-08T07:13:43.613Z,74.17
2022-12-08T07:16:12.858Z,74.30
2022-12-08T07:18:42.387Z,74.27
2022-12-08T07:21:12.786Z,74.31
2022-12-08T07:23:41.088Z,74.31
2022-12-08T07:26:12.115Z,74.28
2022-12-08T07:28:42.064Z,74.43
2022-12-08T07:31:22.755Z,74.62
2022-12-08T07:33:51.131Z,74.57
2022-12-08T07:36:19.036Z,74.79
2022-12-08T07:38:46.858Z,74.65
2022-12-08T07:41:17.955Z,74.75
2022-12-08T07:43:45.956Z,74.62
2022-12-08T07:46:16.018Z,74.56
2022-12-08T07:48:44.712Z,74.43
2022-12-08T07:51:15.367Z,74.37
2022-12-08T07:53:49.897Z,73.98
2022-12-08T07:56:14.872Z,73.78
2022-12-08T07:58:44.429Z,73.62
2022-12-08T08:01:22.693Z,73.41
2022-12-08T08:03:50.575Z,73.37
2022-12-08T08:06:18.167Z,73.29
2022-12-08T08:08:45.923Z,73.17
2022-12-08T08:11:20.778Z,73.28
2022-12-08T08:13:43.164Z,73.36
2022-12-08T08:16:13.083Z,73.50
2022-12-08T08:18:41.099Z,73.52
2022-12-08T08:21:43.188Z,73.52
2022-12-08T08:23:38.539Z,73.48
2022-12-08T08:26:06.234Z,73.43
2022-12-08T08:28:34.949Z,73.45
2022-12-08T08:31:02.694Z,73.43
2022-12-08T08:33:30.355Z,73.44
2022-12-08T08:35:58.579Z,73.30
2022-12-08T08:38:26.162Z,73.38
2022-12-08T08:40:53.843Z,73.42
2022-12-08T08:43:36.022Z,73.30
2022-12-08T08:46:00.816Z,73.43
2022-12-08T08:48:30.397Z,73.45
2022-12-08T08:50:58.531Z,73.38
2022-12-08T08:53:26.201Z,73.45
2022-12-08T08:55:54.024Z,73.55
2022-12-08T08:58:21.481Z,73.56
2022-12-08T09:00:48.774Z,73.56
2022-12-08T09:03:16.765Z,73.69
2022-12-08T09:05:44.632Z,73.63
2022-12-08T09:08:12.321Z,73.64
2022-12-08T09:10:40.319Z,73.59
2022-12-08T09:13:08.583Z,73.57
2022-12-08T09:15:36.854Z,73.50
2022-12-08T09:18:06.307Z,73.48
2022-12-08T09:20:35.317Z,73.51
2022-12-08T09:23:02.772Z,73.59
2022-12-08T09:25:30.549Z,73.60
2022-12-08T09:27:58.024Z,73.62
2022-12-08T09:30:25.724Z,73.60
2022-12-08T09:32:53.461Z,73.47
2022-12-08T09:35:21.133Z,73.47
2022-12-08T09:37:48.603Z,73.49
2022-12-08T09:40:20.313Z,73.51
2022-12-08T09:42:59.233Z,73.66
2022-12-08T09:45:30.684Z,73.66
2022-12-08T09:48:15.277Z,73.95
2022-12-08T09:50:53.589Z,74.04
2022-12-08T09:53:37.807Z,74.00
2022-12-08T09:56:17.221Z,73.85
2022-12-08T09:59:10.248Z,73.84
2022-12-08T10:01:41.453Z,73.65
2022-12-08T10:04:23.795Z,73.70
2022-12-08T10:07:07.059Z,73.72
2022-12-08T10:10:03.591Z,73.76
2022-12-08T10:12:39.691Z,73.64
2022-12-08T10:15:46.268Z,73.41
2022-12-08T10:18:21.883Z,73.28
2022-12-08T10:20:51.443Z,72.80
2022-12-08T10:23:30.357Z,72.78
2022-12-08T10:26:05.663Z,72.72
2022-12-08T10:28:34.441Z,72.87
2022-12-08T10:31:02.221Z,72.93
2022-12-08T10:33:32.320Z,72.87
2022-12-08T10:36:04.304Z,73.02
2022-12-08T10:38:35.620Z,72.70
2022-12-08T10:41:13.972Z,72.66
2022-12-08T10:44:00.668Z,72.93
2022-12-08T10:46:29.720Z,72.80
2022-12-08T10:49:09.224Z,72.86
2022-12-08T10:51:43.135Z,73.03
2022-12-08T10:54:33.430Z,73.10
2022-12-08T10:57:01.031Z,73.12
2022-12-08T10:59:29.058Z,73.12
2022-12-08T11:01:57.175Z,73.11
2022-12-08T11:04:37.694Z,73.08
2022-12-08T11:07:08.788Z,73.09
2022-12-08T11:09:50.251Z,73.19
2022-12-08T11:12:22.637Z,73.22
2022-12-08T11:14:58.525Z,73.12
2022-12-08T11:17:29.804Z,73.10
2022-12-08T11:20:12.004Z,73.16
2022-12-08T11:22:48.347Z,73.27
2022-12-08T11:25:26.621Z,73.22
2022-12-08T11:28:00.475Z,73.27
2022-12-08T11:30:33.830Z,73.45
2022-12-08T11:33:07.120Z,73.45
2022-12-08T11:35:41.665Z,73.46
2022-12-08T11:38:23.674Z,73.83
2022-12-08T11:40:46.091Z,74.04
2022-12-08T11:43:25.179Z,73.97
2022-12-08T11:46:20.836Z,73.43
2022-12-08T11:49:10.535Z,73.33
2022-12-08T11:52:01.863Z,73.19
2022-12-08T11:54:49.601Z,72.88
2022-12-08T11:57:18.974Z,72.10
2022-12-08T11:59:51.859Z,71.89
2022-12-08T12:02:27.241Z,71.52
2022-12-08T12:05:09.143Z,71.53
2022-12-08T12:08:05.213Z,71.25
2022-12-08T12:10:50.298Z,71.34
2022-12-08T12:13:38.399Z,71.38
2022-12-08T12:16:34.479Z,71.10
2022-12-08T12:19:05.509Z,70.96
2022-12-08T12:21:40.605Z,70.82
2022-12-08T12:24:25.513Z,70.89
2022-12-08T12:27:02.967Z,71.04
2022-12-08T12:29:34.858Z,71.00
2022-12-08T12:32:06.146Z,70.87
2022-12-08T12:34:38.447Z,70.84
2022-12-08T12:37:10.550Z,70.69
2022-12-08T12:39:59.082Z,70.67
2022-12-08T12:42:41.464Z,70.65
2022-12-08T12:45:20.459Z,70.33
2022-12-08T12:48:02.361Z,70.11
2022-12-08T12:50:46.109Z,70.25
2022-12-08T12:53:20.083Z,70.42
2022-12-08T12:56:03.353Z,70.36
2022-12-08T12:58:36.024Z,70.56
2022-12-08T13:01:24.473Z,70.73
2022-12-08T13:04:08.093Z,70.68
2022-12-08T13:06:41.084Z,70.54
2022-12-08T13:09:22.595Z,70.58
2022-12-08T13:11:55.000Z,70.62
2022-12-08T13:14:33.743Z,70.48
2022-12-08T13:17:05.189Z,70.46
2022-12-08T13:19:33.964Z,70.56
2022-12-08T13:22:01.553Z,70.57
2022-12-08T13:24:33.816Z,70.55
2022-12-08T13:27:10.412Z,70.54
2022-12-08T13:29:39.112Z,70.52
2022-12-08T13:32:15.006Z,70.56
2022-12-08T13:34:47.922Z,70.42
2022-12-08T13:37:53.849Z,70.42
2022-12-08T13:40:20.566Z,70.13
2022-12-08T13:43:15.061Z,69.91
2022-12-08T13:49:09.971Z,69.72
2022-12-08T13:57:02.670Z,69.60
2022-12-08T13:59:32.169Z,69.71
2022-12-08T14:02:05.234Z,69.65
2022-12-08T14:04:54.621Z,69.50
2022-12-08T14:07:03.670Z,69.18
2022-12-08T14:09:36.958Z,69.15
2022-12-08T14:12:18.968Z,68.93
2022-12-08T14:15:02.976Z,68.86
2022-12-08T14:17:22.874Z,68.48
2022-12-08T14:20:01.583Z,68.16
2022-12-08T14:22:36.798Z,68.23
2022-12-08T14:25:09.269Z,68.22
2022-12-08T14:27:38.270Z,68.06
2022-12-08T14:30:20.426Z,67.94
2022-12-08T14:33:00.478Z,67.99
2022-12-08T14:35:34.720Z,68.06
2022-12-08T14:38:15.909Z,68.03
2022-12-08T14:40:47.335Z,67.99
2022-12-08T14:43:20.626Z,68.00
2022-12-08T14:45:51.266Z,68.10
2022-12-08T14:48:36.633Z,68.15
2022-12-08T14:51:16.090Z,68.22
2022-12-08T14:54:02.703Z,68.33
2022-12-08T14:56:44.542Z,68.51
2022-12-08T14:59:37.136Z,68.54
2022-12-08T15:02:23.554Z,68.60
2022-12-08T15:05:05.301Z,68.67
2022-12-08T15:07:52.517Z,68.83
2022-12-08T15:10:28.104Z,68.92
2022-12-08T15:13:17.053Z,68.94
2022-12-08T15:15:57.305Z,68.98
2022-12-08T15:18:40.953Z,69.06
2022-12-08T15:21:12.397Z,69.17
2022-12-08T15:23:46.190Z,68.85
2022-12-08T15:26:21.618Z,68.83
2022-12-08T15:28:49.547Z,68.96
2022-12-08T15:31:18.537Z,69.16
2022-12-08T15:33:46.222Z,69.18
2022-12-08T15:36:13.911Z,69.28
2022-12-08T15:38:43.202Z,69.45
2022-12-08T15:41:14.992Z,69.69
2022-12-08T15:43:40.278Z,69.88
2022-12-08T15:46:07.943Z,69.97
2022-12-08T15:48:37.643Z,69.97
2022-12-08T15:51:05.541Z,69.89
2022-12-08T15:53:33.082Z,70.05
2022-12-08T15:58:54.616Z,70.17
2022-12-08T16:01:06.549Z,70.20
2022-12-08T16:04:19.786Z,70.22
2022-12-08T16:06:50.791Z,70.34
2022-12-08T16:08:56.290Z,70.42
2022-12-08T16:11:56.340Z,70.58
2022-12-08T16:14:14.906Z,70.59
2022-12-08T16:16:26.194Z,70.75
2022-12-08T16:18:54.059Z,70.76
2022-12-08T16:21:57.847Z,70.45
2022-12-08T16:23:51.044Z,70.13
2022-12-08T16:27:06.961Z,70.07
2022-12-08T16:28:54.361Z,70.16
2022-12-08T16:31:23.187Z,70.02
2022-12-08T16:33:50.417Z,69.94
2022-12-08T16:36:18.183Z,69.85
2022-12-08T16:38:45.766Z,69.80
2022-12-08T16:41:33.969Z,69.74
2022-12-08T16:44:05.844Z,69.69
2022-12-08T16:46:34.425Z,69.49
2022-12-08T16:49:01.964Z,69.61
2022-12-08T16:51:29.347Z,69.70
2022-12-08T16:53:57.775Z,69.80
2022-12-08T16:56:32.189Z,69.80
2022-12-08T16:58:55.517Z,69.92
2022-12-08T17:01:23.319Z,69.96
2022-12-08T17:04:14.420Z,70.03
2022-12-08T17:06:20.686Z,70.05
2022-12-08T17:08:48.250Z,70.12
2022-12-08T17:11:27.214Z,70.12
2022-12-08T17:13:54.608Z,70.12
2022-12-08T17:16:22.426Z,70.11
2022-12-08T17:18:50.512Z,70.11
2022-12-08T17:21:18.174Z,70.12
2022-12-08T17:23:46.648Z,70.12
2022-12-08T17:26:14.749Z,70.14
2022-12-08T17:28:59.971Z,70.22
2022-12-08T17:31:15.427Z,70.35
2022-12-08T17:33:43.631Z,70.45
2022-12-08T17:36:15.318Z,70.51
2022-12-08T17:38:43.827Z,70.54
2022-12-08T17:41:11.737Z,70.55
2022-12-08T17:43:39.372Z,70.55
2022-12-08T17:46:07.068Z,70.54
2022-12-08T17:48:35.232Z,70.50
2022-12-08T17:51:02.824Z,70.54
2022-12-08T17:53:34.282Z,70.58
2022-12-08T17:55:59.402Z,70.65
2022-12-08T17:58:27.161Z,70.63
2022-12-08T18:00:55.004Z,70.61
2022-12-08T18:03:22.516Z,70.63
2022-12-08T18:05:50.409Z,70.69
2022-12-08T18:08:17.851Z,70.71
2022-12-08T18:10:46.454Z,70.74
2022-12-08T18:13:13.955Z,70.89
2022-12-08T18:15:41.602Z,70.82
2022-12-08T18:18:09.049Z,70.94
2022-12-08T18:20:37.181Z,70.88
2022-12-08T18:23:04.948Z,70.93
2022-12-08T18:25:32.644Z,71.08
2022-12-08T18:28:00.271Z,71.01
2022-12-08T18:30:28.019Z,70.88
2022-12-08T18:32:57.429Z,70.72
2022-12-08T18:35:26.542Z,70.55
2022-12-08T18:37:54.529Z,70.37
2022-12-08T18:40:22.619Z,70.25
2022-12-08T18:42:50.383Z,70.13
2022-12-08T18:45:22.447Z,70.04
2022-12-08T18:47:51.353Z,69.91
2022-12-08T18:50:19.464Z,69.79
2022-12-08T18:52:47.159Z,69.77
2022-12-08T18:55:15.384Z,69.82
2022-12-08T18:57:43.580Z,69.94
2022-12-08T19:00:17.691Z,69.99
2022-12-08T19:02:45.946Z,70.08
2022-12-08T19:05:14.364Z,70.03
2022-12-08T19:07:42.380Z,70.15
2022-12-08T19:10:11.660Z,70.09
2022-12-08T19:12:39.249Z,70.12
2022-12-08T19:15:08.905Z,70.23
2022-12-08T19:17:36.320Z,70.27
2022-12-08T19:20:06.310Z,70.22
2022-12-08T19:22:34.350Z,70.58
2022-12-08T19:25:02.534Z,70.89
2022-12-08T19:27:30.200Z,70.98
2022-12-08T19:29:57.932Z,71.34
2022-12-08T19:32:26.230Z,71.52
2022-12-08T19:34:53.524Z,71.71
2022-12-08T19:37:21.262Z,71.81
2022-12-08T19:40:07.845Z,71.98
2022-12-08T19:42:54.360Z,72.27
2022-12-08T19:45:22.505Z,72.30
2022-12-08T19:47:50.366Z,72.54
2022-12-08T19:50:36.472Z,72.65
2022-12-08T19:53:11.521Z,72.64
2022-12-08T19:55:39.765Z,72.84
2022-12-08T19:58:09.424Z,73.03
2022-12-08T20:00:39.811Z,73.26
2022-12-08T20:03:07.936Z,73.46
2022-12-08T20:05:37.262Z,73.42
2022-12-08T20:08:05.675Z,73.37
2022-12-08T20:10:37.288Z,73.39
2022-12-08T20:13:24.326Z,73.38
2022-12-08T20:15:52.405Z,73.73
2022-12-08T20:18:20.356Z,73.83
2022-12-08T20:20:48.982Z,73.71
2022-12-08T20:23:17.482Z,73.75
2022-12-08T20:25:47.079Z,73.72
2022-12-08T20:28:14.701Z,73.64
2022-12-08T20:30:43.564Z,73.64
2022-12-08T20:33:13.275Z,73.72
2022-12-08T20:35:41.034Z,73.66
2022-12-08T20:38:09.528Z,73.79
2022-12-08T20:40:43.168Z,73.79
2022-12-08T20:43:10.514Z,73.80
2022-12-08T20:45:38.205Z,74.04
2022-12-08T20:48:06.214Z,73.70
2022-12-08T20:50:33.858Z,73.78
2022-12-08T20:53:01.564Z,73.77
2022-12-08T20:55:29.345Z,74.12
2022-12-08T20:57:56.820Z,73.98
2022-12-08T21:00:27.362Z,74.00
2022-12-08T21:02:57.044Z,74.25
2022-12-08T21:05:24.931Z,74.29
2022-12-08T21:07:52.744Z,74.55
2022-12-08T21:10:20.509Z,74.66
2022-12-08T21:12:48.501Z,74.92
2022-12-08T21:15:16.243Z,75.08
2022-12-08T21:17:44.035Z,75.38
2022-12-08T21:20:12.094Z,75.48
2022-12-08T21:22:40.369Z,75.69
2022-12-08T21:25:09.228Z,76.00
2022-12-08T21:27:38.480Z,76.18
2022-12-08T21:30:08.372Z,76.36
2022-12-08T21:32:39.094Z,76.56
2022-12-08T21:35:08.696Z,76.68
2022-12-08T21:37:36.432Z,76.75
2022-12-08T21:40:06.493Z,76.68
2022-12-08T21:42:43.417Z,76.53
2022-12-08T21:45:18.148Z,76.41
2022-12-08T21:47:48.234Z,76.24
2022-12-08T21:50:16.790Z,76.08
2022-12-08T21:52:47.319Z,75.78
2022-12-08T21:55:18.392Z,75.78
2022-12-08T21:57:46.697Z,75.70
2022-12-08T22:00:17.311Z,75.72
2022-12-08T22:02:45.765Z,75.83
2022-12-08T22:05:13.676Z,75.92
2022-12-08T22:07:41.806Z,76.01
2022-12-08T22:10:11.367Z,76.12
2022-12-08T22:12:39.589Z,76.26
2022-12-08T22:15:10.593Z,76.39
2022-12-08T22:17:41.700Z,76.54
2022-12-08T22:20:13.683Z,76.72
2022-12-08T22:22:41.767Z,76.76
2022-12-08T22:25:11.385Z,76.83
2022-12-08T22:27:40.518Z,76.85
2022-12-08T22:30:10.429Z,77.01
2022-12-08T22:32:38.604Z,77.17
2022-12-08T22:35:07.540Z,77.26
2022-12-08T22:37:35.086Z,77.15
2022-12-08T22:40:03.488Z,77.25
2022-12-08T22:42:31.458Z,77.45
2022-12-08T22:44:59.428Z,77.46
2022-12-08T22:47:27.391Z,77.64
2022-12-08T22:49:55.185Z,77.89
2022-12-08T22:52:22.978Z,77.95
2022-12-08T22:54:50.404Z,78.04
2022-12-08T22:57:18.194Z,78.10
2022-12-08T22:59:46.045Z,78.06
2022-12-08T23:02:14.290Z,78.00
2022-12-08T23:04:42.369Z,78.02
2022-12-08T23:07:10.138Z,77.74
2022-12-08T23:09:38.048Z,77.67
2022-12-08T23:12:07.016Z,77.58
2022-12-08T23:14:35.044Z,77.42
2022-12-08T23:17:05.592Z,77.29
2022-12-08T23:19:36.466Z,77.06
2022-12-08T23:22:04.143Z,76.91
2022-12-08T23:24:31.825Z,76.73
2022-12-08T23:26:59.771Z,76.70
2022-12-08T23:29:27.771Z,76.63
2022-12-08T23:31:56.244Z,76.71
2022-12-08T23:34:24.190Z,76.80
2022-12-08T23:36:51.854Z,76.86
2022-12-08T23:39:21.570Z,76.86
2022-12-08T23:41:49.427Z,76.97
2022-12-08T23:44:17.302Z,77.06
2022-12-08T23:46:45.097Z,77.13
2022-12-08T23:49:12.969Z,77.19
2022-12-08T23:51:40.575Z,77.25
2022-12-08T23:54:08.387Z,77.44
2022-12-08T23:56:35.840Z,77.52
2022-12-08T23:59:03.662Z,77.68
